sensor_id;sensor_type;location;lat;lon;timestamp;pressure;altitude;pressure_sealevel;temperature;humidity
75747;BME280;64363;52.198;21.020;2022-11-14T00:00:20;101778.66;;;9.06;85.31
75747;BME280;64363;52.198;21.020;2022-11-14T00:03:07;101783.97;;;9.03;85.99
75747;BME280;64363;52.198;21.020;2022-11-14T00:05:38;101778.63;;;9.11;85.24
75747;BME280;64363;52.198;21.020;2022-11-14T00:08:04;101788.44;;;9.03;85.90
75747;BME280;64363;52.198;21.020;2022-11-14T00:10:30;101770.69;;;9.00;85.89
75747;BME280;64363;52.198;21.020;2022-11-14T00:12:55;101779.53;;;9.05;85.66
75747;BME280;64363;52.198;21.020;2022-11-14T00:15:21;101782.19;;;9.10;85.59
75747;BME280;64363;52.198;21.020;2022-11-14T00:17:47;101783.06;;;9.09;85.81
75747;BME280;64363;52.198;21.020;2022-11-14T00:20:12;101782.19;;;9.10;85.90
75747;BME280;64363;52.198;21.020;2022-11-14T00:22:38;101784.84;;;9.14;84.94
75747;BME280;64363;52.198;21.020;2022-11-14T00:25:04;101781.31;;;9.09;85.59
75747;BME280;64363;52.198;21.020;2022-11-14T00:27:30;101778.63;;;9.08;85.55
75747;BME280;64363;52.198;21.020;2022-11-14T00:29:55;101777.75;;;9.10;85.20
75747;BME280;64363;52.198;21.020;2022-11-14T00:32:21;101784.88;;;8.99;85.83
75747;BME280;64363;52.198;21.020;2022-11-14T00:34:48;101775.13;;;8.98;86.06
75747;BME280;64363;52.198;21.020;2022-11-14T00:37:14;101779.53;;;8.99;85.83
75747;BME280;64363;52.198;21.020;2022-11-14T00:39:39;101778.66;;;9.02;85.79
75747;BME280;64363;52.198;21.020;2022-11-14T00:42:05;101780.44;;;9.01;85.47
75747;BME280;64363;52.198;21.020;2022-11-14T00:44:31;101776.03;;;8.97;85.72
75747;BME280;64363;52.198;21.020;2022-11-14T00:46:57;101775.13;;;8.98;86.42
75747;BME280;64363;52.198;21.020;2022-11-14T00:49:22;101767.16;;;8.98;85.95
75747;BME280;64363;52.198;21.020;2022-11-14T00:51:48;101768.91;;;8.99;86.07
75747;BME280;64363;52.198;21.020;2022-11-14T00:54:13;101765.38;;;8.97;86.19
75747;BME280;64363;52.198;21.020;2022-11-14T00:56:39;101764.47;;;8.95;86.33
75747;BME280;64363;52.198;21.020;2022-11-14T00:59:05;101764.47;;;8.95;86.12
75747;BME280;64363;52.198;21.020;2022-11-14T01:01:30;101754.75;;;8.94;86.01
75747;BME280;64363;52.198;21.020;2022-11-14T01:03:56;101752.09;;;8.88;86.42
75747;BME280;64363;52.198;21.020;2022-11-14T01:06:21;101751.22;;;8.87;86.39
75747;BME280;64363;52.198;21.020;2022-11-14T01:08:49;101745.00;;;8.87;87.33
75747;BME280;64363;52.198;21.020;2022-11-14T01:11:18;101741.47;;;8.89;86.94
75747;BME280;64363;52.198;21.020;2022-11-14T01:13:44;101746.75;;;8.92;86.72
75747;BME280;64363;52.198;21.020;2022-11-14T01:16:10;101747.63;;;8.99;86.59
75747;BME280;64363;52.198;21.020;2022-11-14T01:18:37;101738.78;;;8.99;86.75
75747;BME280;64363;52.198;21.020;2022-11-14T01:21:04;101747.63;;;8.96;86.53
75747;BME280;64363;52.198;21.020;2022-11-14T01:23:31;101735.22;;;8.97;86.40
75747;BME280;64363;52.198;21.020;2022-11-14T01:26:05;101720.16;;;8.92;86.66
75747;BME280;64363;52.198;21.020;2022-11-14T01:28:31;101729.94;;;8.93;85.75
75747;BME280;64363;52.198;21.020;2022-11-14T01:31:26;101731.69;;;8.96;86.02
75747;BME280;64363;52.198;21.020;2022-11-14T01:33:52;101725.50;;;8.92;86.46
75747;BME280;64363;52.198;21.020;2022-11-14T01:36:19;101729.03;;;8.95;86.02
75747;BME280;64363;52.198;21.020;2022-11-14T01:38:45;101720.16;;;8.91;86.26
75747;BME280;64363;52.198;21.020;2022-11-14T01:41:13;101713.09;;;8.95;85.55
75747;BME280;64363;52.198;21.020;2022-11-14T01:43:40;101718.41;;;8.90;86.38
75747;BME280;64363;52.198;21.020;2022-11-14T01:46:11;101726.41;;;8.90;86.40
75747;BME280;64363;52.198;21.020;2022-11-14T01:48:46;101716.63;;;8.89;86.37
75747;BME280;64363;52.198;21.020;2022-11-14T01:51:20;101713.97;;;8.92;86.25
75747;BME280;64363;52.198;21.020;2022-11-14T01:53:51;101706.84;;;8.97;85.74
75747;BME280;64363;52.198;21.020;2022-11-14T01:56:22;101714.84;;;8.94;85.55
75747;BME280;64363;52.198;21.020;2022-11-14T01:58:56;101702.44;;;8.95;85.90
75747;BME280;64363;52.198;21.020;2022-11-14T02:01:22;101705.97;;;8.92;85.70
75747;BME280;64363;52.198;21.020;2022-11-14T02:03:52;101697.13;;;8.88;85.69
75747;BME280;64363;52.198;21.020;2022-11-14T02:06:21;101705.09;;;8.88;85.88
75747;BME280;64363;52.198;21.020;2022-11-14T02:08:48;101690.91;;;8.88;86.02
75747;BME280;64363;52.198;21.020;2022-11-14T02:11:15;101697.09;;;8.91;86.43
75747;BME280;64363;52.198;21.020;2022-11-14T02:13:41;101691.81;;;8.88;86.17
75747;BME280;64363;52.198;21.020;2022-11-14T02:16:07;101697.13;;;8.90;86.37
75747;BME280;64363;52.198;21.020;2022-11-14T02:18:32;101694.47;;;8.90;85.78
75747;BME280;64363;52.198;21.020;2022-11-14T02:20:58;101695.38;;;8.90;86.10
75747;BME280;64363;52.198;21.020;2022-11-14T02:23:25;101686.50;;;8.88;86.18
75747;BME280;64363;52.198;21.020;2022-11-14T02:25:51;101695.34;;;8.89;86.52
75747;BME280;64363;52.198;21.020;2022-11-14T02:28:17;101687.38;;;8.90;86.41
75747;BME280;64363;52.198;21.020;2022-11-14T02:30:45;101684.72;;;8.87;86.70
75747;BME280;64363;52.198;21.020;2022-11-14T02:33:10;101685.63;;;8.82;87.07
75747;BME280;64363;52.198;21.020;2022-11-14T02:35:36;101682.09;;;8.86;87.33
75747;BME280;64363;52.198;21.020;2022-11-14T02:38:02;101682.97;;;8.86;87.40
75747;BME280;64363;52.198;21.020;2022-11-14T02:40:27;101680.28;;;8.89;87.67
75747;BME280;64363;52.198;21.020;2022-11-14T02:42:53;101682.06;;;8.90;87.41
75747;BME280;64363;52.198;21.020;2022-11-14T02:45:19;101681.16;;;8.88;87.46
75747;BME280;64363;52.198;21.020;2022-11-14T02:47:45;101672.34;;;8.82;89.01
75747;BME280;64363;52.198;21.020;2022-11-14T02:50:11;101666.09;;;8.89;88.60
75747;BME280;64363;52.198;21.020;2022-11-14T02:52:36;101673.19;;;8.84;88.99
75747;BME280;64363;52.198;21.020;2022-11-14T02:55:03;101674.97;;;8.83;88.93
75747;BME280;64363;52.198;21.020;2022-11-14T02:57:29;101670.56;;;8.82;88.80
75747;BME280;64363;52.198;21.020;2022-11-14T02:59:55;101669.66;;;8.85;88.54
75747;BME280;64363;52.198;21.020;2022-11-14T03:02:20;101664.34;;;8.83;88.86
75747;BME280;64363;52.198;21.020;2022-11-14T03:04:46;101662.56;;;8.84;88.82
75747;BME280;64363;52.198;21.020;2022-11-14T03:07:12;101659.03;;;8.79;89.56
75747;BME280;64363;52.198;21.020;2022-11-14T03:09:37;101663.53;;;8.69;88.75
75747;BME280;64363;52.198;21.020;2022-11-14T03:12:03;101655.56;;;8.65;89.20
75747;BME280;64363;52.198;21.020;2022-11-14T03:14:29;101660.88;;;8.63;89.03
75747;BME280;64363;52.198;21.020;2022-11-14T03:16:55;101658.25;;;8.53;89.43
75747;BME280;64363;52.198;21.020;2022-11-14T03:19:21;101656.47;;;8.56;89.59
75747;BME280;64363;52.198;21.020;2022-11-14T03:21:46;101657.34;;;8.60;90.06
75747;BME280;64363;52.198;21.020;2022-11-14T03:24:12;101644.94;;;8.62;88.95
75747;BME280;64363;52.198;21.020;2022-11-14T03:26:37;101644.91;;;8.65;89.17
75747;BME280;64363;52.198;21.020;2022-11-14T03:29:03;101638.72;;;8.63;88.28
75747;BME280;64363;52.198;21.020;2022-11-14T03:31:29;101643.13;;;8.64;88.65
75747;BME280;64363;52.198;21.020;2022-11-14T03:33:54;101644.91;;;8.59;88.56
75747;BME280;64363;52.198;21.020;2022-11-14T03:36:20;101650.25;;;8.57;89.01
75747;BME280;64363;52.198;21.020;2022-11-14T03:38:46;101647.56;;;8.65;89.01
75747;BME280;64363;52.198;21.020;2022-11-14T03:41:12;101649.31;;;8.67;88.05
75747;BME280;64363;52.198;21.020;2022-11-14T03:43:38;101647.59;;;8.66;88.41
75747;BME280;64363;52.198;21.020;2022-11-14T03:46:03;101637.81;;;8.70;87.94
75747;BME280;64363;52.198;21.020;2022-11-14T03:48:29;101636.06;;;8.66;88.14
75747;BME280;64363;52.198;21.020;2022-11-14T03:50:55;101638.72;;;8.66;88.50
75747;BME280;64363;52.198;21.020;2022-11-14T03:53:21;101642.25;;;8.69;88.15
75747;BME280;64363;52.198;21.020;2022-11-14T03:55:47;101632.50;;;8.64;88.36
75747;BME280;64363;52.198;21.020;2022-11-14T03:58:12;101636.97;;;8.60;88.33
75747;BME280;64363;52.198;21.020;2022-11-14T04:00:38;101630.75;;;8.61;87.97
75747;BME280;64363;52.198;21.020;2022-11-14T04:03:04;101632.50;;;8.64;88.53
75747;BME280;64363;52.198;21.020;2022-11-14T04:05:30;101638.72;;;8.64;88.54
75747;BME280;64363;52.198;21.020;2022-11-14T04:07:55;101633.41;;;8.64;87.86
75747;BME280;64363;52.198;21.020;2022-11-14T04:10:21;101626.31;;;8.63;88.67
75747;BME280;64363;52.198;21.020;2022-11-14T04:12:48;101626.31;;;8.65;88.14
75747;BME280;64363;52.198;21.020;2022-11-14T04:15:15;101616.53;;;8.67;88.19
75747;BME280;64363;52.198;21.020;2022-11-14T04:17:41;101620.97;;;8.68;87.79
75747;BME280;64363;52.198;21.020;2022-11-14T04:20:07;101617.44;;;8.63;88.23
75747;BME280;64363;52.198;21.020;2022-11-14T04:22:33;101624.56;;;8.61;88.87
75747;BME280;64363;52.198;21.020;2022-11-14T04:24:58;101620.13;;;8.60;88.40
75747;BME280;64363;52.198;21.020;2022-11-14T04:27:24;101618.34;;;8.59;88.46
75747;BME280;64363;52.198;21.020;2022-11-14T04:29:50;101620.09;;;8.66;88.14
75747;BME280;64363;52.198;21.020;2022-11-14T04:32:16;101622.78;;;8.66;88.39
75747;BME280;64363;52.198;21.020;2022-11-14T04:34:41;101620.97;;;8.68;88.25
75747;BME280;64363;52.198;21.020;2022-11-14T04:37:07;101621.88;;;8.64;87.75
75747;BME280;64363;52.198;21.020;2022-11-14T04:39:35;101618.34;;;8.65;88.57
75747;BME280;64363;52.198;21.020;2022-11-14T04:42:02;101615.66;;;8.68;88.78
75747;BME280;64363;52.198;21.020;2022-11-14T04:44:28;101614.75;;;8.67;88.51
75747;BME280;64363;52.198;21.020;2022-11-14T04:46:54;101611.28;;;8.58;88.13
75747;BME280;64363;52.198;21.020;2022-11-14T04:49:19;101601.53;;;8.58;88.46
75747;BME280;64363;52.198;21.020;2022-11-14T04:51:46;101602.41;;;8.60;88.19
75747;BME280;64363;52.198;21.020;2022-11-14T04:54:11;101601.53;;;8.58;87.81
75747;BME280;64363;52.198;21.020;2022-11-14T04:56:37;101607.75;;;8.53;88.39
75747;BME280;64363;52.198;21.020;2022-11-14T04:59:02;101600.63;;;8.55;88.25
75747;BME280;64363;52.198;21.020;2022-11-14T05:01:28;101606.84;;;8.55;88.19
75747;BME280;64363;52.198;21.020;2022-11-14T05:03:54;101596.22;;;8.58;88.19
75747;BME280;64363;52.198;21.020;2022-11-14T05:06:20;101598.00;;;8.53;88.43
75747;BME280;64363;52.198;21.020;2022-11-14T05:08:46;101605.06;;;8.57;89.16
75747;BME280;64363;52.198;21.020;2022-11-14T05:11:18;101598.88;;;8.58;89.01
75747;BME280;64363;52.198;21.020;2022-11-14T05:13:44;101601.50;;;8.61;88.75
75747;BME280;64363;52.198;21.020;2022-11-14T05:16:10;101595.31;;;8.56;88.61
75747;BME280;64363;52.198;21.020;2022-11-14T05:18:37;101602.38;;;8.59;88.57
75747;BME280;64363;52.198;21.020;2022-11-14T05:21:03;101603.28;;;8.62;88.84
75747;BME280;64363;52.198;21.020;2022-11-14T05:23:29;101605.06;;;8.62;87.84
75747;BME280;64363;52.198;21.020;2022-11-14T05:26:00;101597.09;;;8.56;88.26
75747;BME280;64363;52.198;21.020;2022-11-14T05:28:26;101600.66;;;8.53;87.95
75747;BME280;64363;52.198;21.020;2022-11-14T05:30:52;101593.56;;;8.58;88.31
75747;BME280;64363;52.198;21.020;2022-11-14T05:33:17;101597.06;;;8.60;87.43
75747;BME280;64363;52.198;21.020;2022-11-14T05:35:43;101588.25;;;8.48;88.75
75747;BME280;64363;52.198;21.020;2022-11-14T05:38:09;101596.22;;;8.48;88.54
75747;BME280;64363;52.198;21.020;2022-11-14T05:40:36;101591.81;;;8.50;88.81
75747;BME280;64363;52.198;21.020;2022-11-14T05:43:01;101598.00;;;8.52;88.25
75747;BME280;64363;52.198;21.020;2022-11-14T05:45:27;101591.84;;;8.42;88.47
75747;BME280;64363;52.198;21.020;2022-11-14T05:47:53;101589.22;;;8.34;88.50
75747;BME280;64363;52.198;21.020;2022-11-14T05:50:19;101594.53;;;8.33;89.12
75747;BME280;64363;52.198;21.020;2022-11-14T05:52:44;101596.31;;;8.34;87.95
75747;BME280;64363;52.198;21.020;2022-11-14T05:55:25;101591.88;;;8.34;88.93
75747;BME280;64363;52.198;21.020;2022-11-14T05:57:50;101590.09;;;8.33;89.58
75747;BME280;64363;52.198;21.020;2022-11-14T12:25:14;101392.56;;;8.28;82.29
75747;BME280;64363;52.198;21.020;2022-11-14T12:27:45;101385.47;;;8.36;81.85
75747;BME280;64363;52.198;21.020;2022-11-14T12:30:20;101384.50;;;8.46;81.12
75747;BME280;64363;52.198;21.020;2022-11-14T12:33:42;101380.91;;;8.57;81.33
75747;BME280;64363;52.198;21.020;2022-11-14T12:35:58;101374.09;;;8.10;81.08
75747;BME280;64363;52.198;21.020;2022-11-14T12:38:31;101387.38;;;8.04;81.39
75747;BME280;64363;52.198;21.020;2022-11-14T12:41:00;101390.84;;;8.21;81.81
75747;BME280;64363;52.198;21.020;2022-11-14T12:45:56;101397.09;;;8.07;81.38
75747;BME280;64363;52.198;21.020;2022-11-14T12:50:52;101380.34;;;8.02;80.86
75747;BME280;64363;52.198;21.020;2022-11-14T12:56:11;101383.94;;;7.88;81.31
75747;BME280;64363;52.198;21.020;2022-11-14T13:01:47;101384.72;;;8.07;81.68
75747;BME280;64363;52.198;21.020;2022-11-14T13:12:17;101378.41;;;8.34;81.76
75747;BME280;64363;52.198;21.020;2022-11-14T13:15:30;101377.44;;;8.42;80.93
75747;BME280;64363;52.198;21.020;2022-11-14T13:18:20;101366.81;;;8.45;80.01
75747;BME280;64363;52.198;21.020;2022-11-14T13:21:23;101373.13;;;8.26;79.90
75747;BME280;64363;52.198;21.020;2022-11-14T13:24:09;101378.47;;;8.17;80.87
75747;BME280;64363;52.198;21.020;2022-11-14T13:26:37;101380.22;;;8.21;81.09
75747;BME280;64363;52.198;21.020;2022-11-14T13:29:02;101366.94;;;8.21;80.60
75747;BME280;64363;52.198;21.020;2022-11-14T13:34:49;101367.91;;;8.10;81.22
75747;BME280;64363;52.198;21.020;2022-11-14T13:36:53;101366.97;;;8.18;80.72
75747;BME280;64363;52.198;21.020;2022-11-14T13:39:43;101358.09;;;8.22;80.66
75747;BME280;64363;52.198;21.020;2022-11-14T13:45:29;101358.94;;;8.23;80.98
75747;BME280;64363;52.198;21.020;2022-11-14T13:50:37;101359.78;;;8.35;79.78
75747;BME280;64363;52.198;21.020;2022-11-14T13:53:31;101352.72;;;8.34;80.26
75747;BME280;64363;52.198;21.020;2022-11-14T13:56:06;101359.72;;;8.44;80.37
75747;BME280;64363;52.198;21.020;2022-11-14T13:58:52;101372.94;;;8.52;79.62
75747;BME280;64363;52.198;21.020;2022-11-14T14:06:31;101356.25;;;8.33;80.43
75747;BME280;64363;52.198;21.020;2022-11-14T14:14:38;101347.47;;;8.22;79.43
75747;BME280;64363;52.198;21.020;2022-11-14T14:17:44;101344.88;;;8.10;79.73
75747;BME280;64363;52.198;21.020;2022-11-14T14:20:35;101348.38;;;8.11;80.34
75747;BME280;64363;52.198;21.020;2022-11-14T14:23:16;101341.25;;;8.20;80.21
75747;BME280;64363;52.198;21.020;2022-11-14T14:31:34;101313.06;;;8.01;80.47
75747;BME280;64363;52.198;21.020;2022-11-14T14:34:00;101318.31;;;8.09;80.57
75747;BME280;64363;52.198;21.020;2022-11-14T14:36:28;101312.06;;;8.17;80.76
75747;BME280;64363;52.198;21.020;2022-11-14T14:39:20;101317.41;;;8.11;79.82
75747;BME280;64363;52.198;21.020;2022-11-14T14:41:46;101310.28;;;8.16;80.60
75747;BME280;64363;52.198;21.020;2022-11-14T14:44:37;101311.16;;;8.21;80.27
75747;BME280;64363;52.198;21.020;2022-11-14T14:47:29;101311.19;;;8.18;79.23
75747;BME280;64363;52.198;21.020;2022-11-14T14:50:18;101305.06;;;8.06;79.28
75747;BME280;64363;52.198;21.020;2022-11-14T14:52:44;101303.31;;;8.00;79.68
75747;BME280;64363;52.198;21.020;2022-11-14T14:55:21;101307.78;;;7.92;78.97
75747;BME280;64363;52.198;21.020;2022-11-14T14:57:48;101309.59;;;7.84;79.46
75747;BME280;64363;52.198;21.020;2022-11-14T15:00:18;101306.03;;;7.91;79.70
75747;BME280;64363;52.198;21.020;2022-11-14T15:02:45;101315.84;;;7.77;79.18
75747;BME280;64363;52.198;21.020;2022-11-14T15:05:28;101306.22;;;7.58;79.39
75747;BME280;64363;52.198;21.020;2022-11-14T15:07:58;101307.94;;;7.65;80.12
75747;BME280;64363;52.198;21.020;2022-11-14T15:10:29;101303.50;;;7.67;79.32
75747;BME280;64363;52.198;21.020;2022-11-14T15:12:56;101298.31;;;7.45;80.01
75747;BME280;64363;52.198;21.020;2022-11-14T15:15:23;101299.16;;;7.53;80.08
75747;BME280;64363;52.198;21.020;2022-11-14T15:17:54;101295.59;;;7.54;80.50
75747;BME280;64363;52.198;21.020;2022-11-14T15:20:25;101284.94;;;7.65;80.08
75747;BME280;64363;52.198;21.020;2022-11-14T15:23:20;101292.91;;;7.64;80.16
75747;BME280;64363;52.198;21.020;2022-11-14T15:25:46;101286.72;;;7.65;79.82
75747;BME280;64363;52.198;21.020;2022-11-14T15:28:15;101276.06;;;7.68;78.86
75747;BME280;64363;52.198;21.020;2022-11-14T15:30:55;101293.78;;;7.69;79.56
75747;BME280;64363;52.198;21.020;2022-11-14T15:33:30;101276.97;;;7.70;79.29
75747;BME280;64363;52.198;21.020;2022-11-14T15:38:31;101281.47;;;7.51;79.36
75747;BME280;64363;52.198;21.020;2022-11-14T15:41:21;101276.19;;;7.43;79.14
75747;BME280;64363;52.198;21.020;2022-11-14T15:43:51;101274.38;;;7.51;79.47
75747;BME280;64363;52.198;21.020;2022-11-14T15:49:00;101264.59;;;7.66;78.63
75747;BME280;64363;52.198;21.020;2022-11-14T15:54:20;101243.38;;;7.66;78.16
75747;BME280;64363;52.198;21.020;2022-11-14T15:56:46;101248.69;;;7.60;78.34
75747;BME280;64363;52.198;21.020;2022-11-14T15:59:13;101249.66;;;7.45;78.51
75747;BME280;64363;52.198;21.020;2022-11-14T16:01:38;101253.19;;;7.48;79.30
75747;BME280;64363;52.198;21.020;2022-11-14T16:04:04;101251.34;;;7.60;78.90
75747;BME280;64363;52.198;21.020;2022-11-14T16:06:31;101246.06;;;7.58;78.89
75747;BME280;64363;52.198;21.020;2022-11-14T16:08:57;101244.25;;;7.66;78.93
75747;BME280;64363;52.198;21.020;2022-11-14T16:11:22;101246.91;;;7.59;78.97
75747;BME280;64363;52.198;21.020;2022-11-14T16:13:48;101236.41;;;7.40;78.55
75747;BME280;64363;52.198;21.020;2022-11-14T16:16:14;101242.63;;;7.38;79.73
75747;BME280;64363;52.198;21.020;2022-11-14T16:18:40;101234.72;;;7.29;79.12
75747;BME280;64363;52.198;21.020;2022-11-14T16:21:10;101231.16;;;7.33;79.99
75747;BME280;64363;52.198;21.020;2022-11-14T16:23:37;101238.19;;;7.35;80.13
75747;BME280;64363;52.198;21.020;2022-11-14T16:26:03;101232.91;;;7.31;79.56
75747;BME280;64363;52.198;21.020;2022-11-14T16:28:29;101225.81;;;7.34;80.07
75747;BME280;64363;52.198;21.020;2022-11-14T16:30:55;101224.84;;;7.53;79.10
75747;BME280;64363;52.198;21.020;2022-11-14T16:33:21;101222.19;;;7.57;79.29
75747;BME280;64363;52.198;21.020;2022-11-14T16:35:46;101224.81;;;7.60;80.06
75747;BME280;64363;52.198;21.020;2022-11-14T16:38:12;101225.63;;;7.68;79.37
75747;BME280;64363;52.198;21.020;2022-11-14T16:40:42;101223.88;;;7.70;78.79
75747;BME280;64363;52.198;21.020;2022-11-14T16:43:11;101221.25;;;7.65;78.84
75747;BME280;64363;52.198;21.020;2022-11-14T16:45:39;101219.50;;;7.60;78.92
75747;BME280;64363;52.198;21.020;2022-11-14T16:48:04;101220.34;;;7.65;78.84
75747;BME280;64363;52.198;21.020;2022-11-14T16:50:30;101216.00;;;7.53;78.92
75747;BME280;64363;52.198;21.020;2022-11-14T16:52:56;101216.91;;;7.52;78.80
75747;BME280;64363;52.198;21.020;2022-11-14T16:55:21;101209.81;;;7.52;79.28
75747;BME280;64363;52.198;21.020;2022-11-14T16:57:47;101199.22;;;7.48;79.59
75747;BME280;64363;52.198;21.020;2022-11-14T17:00:14;101200.06;;;7.54;79.34
75747;BME280;64363;52.198;21.020;2022-11-14T17:02:40;101208.06;;;7.48;78.82
75747;BME280;64363;52.198;21.020;2022-11-14T17:05:06;101210.75;;;7.42;80.34
75747;BME280;64363;52.198;21.020;2022-11-14T17:07:32;101210.78;;;7.36;80.67
75747;BME280;64363;52.198;21.020;2022-11-14T17:09:58;101205.44;;;7.44;79.86
75747;BME280;64363;52.198;21.020;2022-11-14T17:12:25;101210.69;;;7.51;79.35
75747;BME280;64363;52.198;21.020;2022-11-14T17:14:51;101203.75;;;7.32;80.16
75747;BME280;64363;52.198;21.020;2022-11-14T17:17:19;101204.63;;;7.33;79.87
75747;BME280;64363;52.198;21.020;2022-11-14T17:19:45;101204.56;;;7.43;79.60
75747;BME280;64363;52.198;21.020;2022-11-14T17:22:19;101193.09;;;7.41;79.52
75747;BME280;64363;52.198;21.020;2022-11-14T17:24:44;101198.38;;;7.46;79.58
75747;BME280;64363;52.198;21.020;2022-11-14T17:27:10;101199.28;;;7.40;79.52
75747;BME280;64363;52.198;21.020;2022-11-14T17:29:37;101191.38;;;7.33;79.28
75747;BME280;64363;52.198;21.020;2022-11-14T17:32:03;101188.69;;;7.34;79.40
75747;BME280;64363;52.198;21.020;2022-11-14T17:34:29;101190.44;;;7.35;79.02
75747;BME280;64363;52.198;21.020;2022-11-14T17:36:55;101189.59;;;7.33;78.76
75747;BME280;64363;52.198;21.020;2022-11-14T17:39:21;101188.78;;;7.16;78.40
75747;BME280;64363;52.198;21.020;2022-11-14T17:41:47;101179.94;;;7.14;79.04
75747;BME280;64363;52.198;21.020;2022-11-14T17:44:13;101177.22;;;7.29;79.42
75747;BME280;64363;52.198;21.020;2022-11-14T17:46:38;101171.00;;;7.30;80.81
75747;BME280;64363;52.198;21.020;2022-11-14T17:49:04;101174.53;;;7.35;79.61
75747;BME280;64363;52.198;21.020;2022-11-14T17:51:30;101164.94;;;7.18;79.24
75747;BME280;64363;52.198;21.020;2022-11-14T17:53:56;101174.63;;;7.14;78.95
75747;BME280;64363;52.198;21.020;2022-11-14T17:56:23;101175.50;;;7.21;79.70
75747;BME280;64363;52.198;21.020;2022-11-14T17:58:51;101166.63;;;7.26;79.48
75747;BME280;64363;52.198;21.020;2022-11-14T18:01:20;101168.41;;;7.26;79.61
75747;BME280;64363;52.198;21.020;2022-11-14T18:03:46;101172.81;;;7.30;79.39
75747;BME280;64363;52.198;21.020;2022-11-14T18:06:14;101174.63;;;7.14;78.68
75747;BME280;64363;52.198;21.020;2022-11-14T18:08:40;101174.66;;;7.11;79.41
75747;BME280;64363;52.198;21.020;2022-11-14T18:11:08;101167.59;;;7.13;79.37
75747;BME280;64363;52.198;21.020;2022-11-14T18:13:35;101173.78;;;7.14;79.37
75747;BME280;64363;52.198;21.020;2022-11-14T18:16:05;101171.09;;;7.20;79.66
75747;BME280;64363;52.198;21.020;2022-11-14T18:18:31;101171.94;;;7.25;78.98
75747;BME280;64363;52.198;21.020;2022-11-14T18:21:04;101164.84;;;7.27;79.60
75747;BME280;64363;52.198;21.020;2022-11-14T18:23:29;101167.53;;;7.25;79.12
75747;BME280;64363;52.198;21.020;2022-11-14T18:25:55;101166.63;;;7.28;78.44
75747;BME280;64363;52.198;21.020;2022-11-14T18:28:21;101155.16;;;7.18;78.95
75747;BME280;64363;52.198;21.020;2022-11-14T18:30:54;101161.34;;;7.19;79.09
75747;BME280;64363;52.198;21.020;2022-11-14T18:33:20;101156.03;;;7.25;79.67
75747;BME280;64363;52.198;21.020;2022-11-14T18:35:58;101152.44;;;7.32;79.24
75747;BME280;64363;52.198;21.020;2022-11-14T18:38:28;101147.19;;;7.23;79.12
75747;BME280;64363;52.198;21.020;2022-11-14T18:40:54;101152.53;;;7.21;79.16
75747;BME280;64363;52.198;21.020;2022-11-14T18:43:20;101150.72;;;7.23;79.69
75747;BME280;64363;52.198;21.020;2022-11-14T18:45:46;101151.63;;;7.22;79.11
75747;BME280;64363;52.198;21.020;2022-11-14T18:48:11;101146.38;;;7.13;78.96
75747;BME280;64363;52.198;21.020;2022-11-14T18:50:37;101135.78;;;7.07;80.25
75747;BME280;64363;52.198;21.020;2022-11-14T18:53:04;101141.97;;;7.12;80.25
75747;BME280;64363;52.198;21.020;2022-11-14T18:55:30;101126.88;;;7.20;80.65
75747;BME280;64363;52.198;21.020;2022-11-14T18:57:55;101136.59;;;7.26;79.47
75747;BME280;64363;52.198;21.020;2022-11-14T19:00:21;101137.44;;;7.26;80.67
75747;BME280;64363;52.198;21.020;2022-11-14T19:02:50;101133.94;;;7.26;79.80
75747;BME280;64363;52.198;21.020;2022-11-14T19:05:16;101131.28;;;7.26;80.39
75747;BME280;64363;52.198;21.020;2022-11-14T19:07:41;101127.72;;;7.27;79.63
75747;BME280;64363;52.198;21.020;2022-11-14T19:10:07;101123.31;;;7.24;79.44
75747;BME280;64363;52.198;21.020;2022-11-14T19:12:35;101122.44;;;7.22;79.27
75747;BME280;64363;52.198;21.020;2022-11-14T19:15:00;101124.25;;;7.14;79.09
75747;BME280;64363;52.198;21.020;2022-11-14T19:17:26;101124.38;;;6.97;79.97
75747;BME280;64363;52.198;21.020;2022-11-14T19:19:52;101126.13;;;6.97;80.35
75747;BME280;64363;52.198;21.020;2022-11-14T19:22:19;101125.22;;;6.99;80.22
75747;BME280;64363;52.198;21.020;2022-11-14T19:24:45;101121.69;;;7.02;79.99
75747;BME280;64363;52.198;21.020;2022-11-14T19:27:14;101123.50;;;6.97;80.25
75747;BME280;64363;52.198;21.020;2022-11-14T19:30:10;101116.41;;;7.02;80.08
75747;BME280;64363;52.198;21.020;2022-11-14T19:32:57;101115.47;;;7.07;81.97
75747;BME280;64363;52.198;21.020;2022-11-14T19:35:30;101118.19;;;6.95;80.54
75747;BME280;64363;52.198;21.020;2022-11-14T19:37:56;101110.19;;;7.04;80.56
75747;BME280;64363;52.198;21.020;2022-11-14T19:40:22;101104.88;;;7.09;80.46
75747;BME280;64363;52.198;21.020;2022-11-14T19:42:51;101104.84;;;7.12;80.28
75747;BME280;64363;52.198;21.020;2022-11-14T19:45:17;101099.56;;;7.09;79.80
75747;BME280;64363;52.198;21.020;2022-11-14T19:47:43;101100.47;;;7.05;80.45
75747;BME280;64363;52.198;21.020;2022-11-14T19:50:09;101094.31;;;7.01;80.06
75747;BME280;64363;52.198;21.020;2022-11-14T19:52:35;101097.84;;;6.99;80.51
75747;BME280;64363;52.198;21.020;2022-11-14T19:55:01;101084.66;;;6.90;80.63
75747;BME280;64363;52.198;21.020;2022-11-14T19:57:29;101085.47;;;6.99;81.59
75747;BME280;64363;52.198;21.020;2022-11-14T19:59:55;101089.88;;;7.02;81.73
75747;BME280;64363;52.198;21.020;2022-11-14T20:02:20;101086.34;;;7.00;80.60
75747;BME280;64363;52.198;21.020;2022-11-14T20:04:59;101081.03;;;7.00;80.68
75747;BME280;64363;52.198;21.020;2022-11-14T20:07:24;101075.78;;;6.94;81.13
75747;BME280;64363;52.198;21.020;2022-11-14T20:09:50;101074.00;;;6.96;81.61
75747;BME280;64363;52.198;21.020;2022-11-14T20:12:16;101070.50;;;6.88;80.65
75747;BME280;64363;52.198;21.020;2022-11-14T20:14:41;101071.38;;;6.87;81.43